sensor_id;sensor_type;location;lat;lon;timestamp;P1;durP1;ratioP1;P2;durP2;ratioP2
12623;SDS011;6377;42.836;23.998;2023-04-03T06:32:26;44.97;;;30.23;;
12623;SDS011;6377;42.836;23.998;2023-04-03T06:34:55;47.30;;;31.70;;
12623;SDS011;6377;42.836;23.998;2023-04-03T06:37:22;62.77;;;38.77;;
12623;SDS011;6377;42.836;23.998;2023-04-03T06:39:51;58.47;;;38.63;;
12623;SDS011;6377;42.836;23.998;2023-04-03T06:42:18;48.60;;;33.47;;
12623;SDS011;6377;42.836;23.998;2023-04-03T06:44:46;54.30;;;36.03;;
12623;SDS011;6377;42.836;23.998;2023-04-03T06:47:15;53.13;;;35.87;;
12623;SDS011;6377;42.836;23.998;2023-04-03T06:49:46;53.60;;;35.43;;
12623;SDS011;6377;42.836;23.998;2023-04-03T06:52:14;47.23;;;31.10;;
12623;SDS011;6377;42.836;23.998;2023-04-03T06:54:41;50.47;;;31.00;;
12623;SDS011;6377;42.836;23.998;2023-04-03T06:57:08;59.80;;;36.43;;
12623;SDS011;6377;42.836;23.998;2023-04-03T06:59:35;36.93;;;26.83;;
12623;SDS011;6377;42.836;23.998;2023-04-03T07:02:03;39.77;;;27.83;;
12623;SDS011;6377;42.836;23.998;2023-04-03T07:04:30;51.30;;;36.23;;
12623;SDS011;6377;42.836;23.998;2023-04-03T07:06:59;49.37;;;32.07;;
12623;SDS011;6377;42.836;23.998;2023-04-03T07:09:26;60.63;;;42.80;;
12623;SDS011;6377;42.836;23.998;2023-04-03T07:11:53;48.47;;;30.60;;
12623;SDS011;6377;42.836;23.998;2023-04-03T07:14:20;52.03;;;35.33;;
12623;SDS011;6377;42.836;23.998;2023-04-03T07:16:47;55.77;;;36.57;;
12623;SDS011;6377;42.836;23.998;2023-04-03T07:19:14;40.53;;;27.17;;
12623;SDS011;6377;42.836;23.998;2023-04-03T07:21:43;32.70;;;21.30;;
12623;SDS011;6377;42.836;23.998;2023-04-03T07:24:12;18.93;;;13.07;;
12623;SDS011;6377;42.836;23.998;2023-04-03T07:26:39;19.27;;;13.90;;
12623;SDS011;6377;42.836;23.998;2023-04-03T07:29:06;31.30;;;21.63;;
12623;SDS011;6377;42.836;23.998;2023-04-03T07:31:34;35.80;;;26.13;;
12623;SDS011;6377;42.836;23.998;2023-04-03T07:34:01;37.23;;;26.53;;
12623;SDS011;6377;42.836;23.998;2023-04-03T07:36:29;30.97;;;21.70;;
12623;SDS011;6377;42.836;23.998;2023-04-03T07:38:58;37.17;;;25.37;;
12623;SDS011;6377;42.836;23.998;2023-04-03T07:41:27;29.30;;;19.63;;
12623;SDS011;6377;42.836;23.998;2023-04-03T07:43:55;33.37;;;22.47;;
12623;SDS011;6377;42.836;23.998;2023-04-03T07:46:22;32.43;;;23.60;;
12623;SDS011;6377;42.836;23.998;2023-04-03T07:48:50;20.13;;;14.53;;
12623;SDS011;6377;42.836;23.998;2023-04-03T07:51:17;23.67;;;16.10;;
12623;SDS011;6377;42.836;23.998;2023-04-03T07:53:44;20.53;;;14.33;;
12623;SDS011;6377;42.836;23.998;2023-04-03T07:56:12;13.90;;;11.10;;
12623;SDS011;6377;42.836;23.998;2023-04-03T07:58:40;17.63;;;12.23;;
12623;SDS011;6377;42.836;23.998;2023-04-03T08:01:08;15.47;;;8.57;;
12623;SDS011;6377;42.836;23.998;2023-04-03T08:03:35;14.33;;;8.43;;
12623;SDS011;6377;42.836;23.998;2023-04-03T08:06:03;16.50;;;10.60;;
12623;SDS011;6377;42.836;23.998;2023-04-03T08:08:32;13.27;;;8.97;;
12623;SDS011;6377;42.836;23.998;2023-04-03T08:11:00;17.03;;;10.03;;
12623;SDS011;6377;42.836;23.998;2023-04-03T08:13:30;11.63;;;7.03;;
12623;SDS011;6377;42.836;23.998;2023-04-03T08:16:07;4.90;;;3.83;;
12623;SDS011;6377;42.836;23.998;2023-04-03T08:18:36;7.93;;;4.73;;
12623;SDS011;6377;42.836;23.998;2023-04-03T08:21:07;4.63;;;3.53;;
12623;SDS011;6377;42.836;23.998;2023-04-03T08:23:35;5.53;;;4.20;;
12623;SDS011;6377;42.836;23.998;2023-04-03T08:26:07;4.37;;;3.03;;
12623;SDS011;6377;42.836;23.998;2023-04-03T08:28:35;4.73;;;4.03;;
12623;SDS011;6377;42.836;23.998;2023-04-03T08:31:03;5.10;;;3.20;;
12623;SDS011;6377;42.836;23.998;2023-04-03T08:33:33;5.33;;;3.67;;
12623;SDS011;6377;42.836;23.998;2023-04-03T08:36:03;5.83;;;4.27;;
12623;SDS011;6377;42.836;23.998;2023-04-03T08:38:30;6.53;;;4.57;;
12623;SDS011;6377;42.836;23.998;2023-04-03T08:41:04;6.77;;;4.33;;
12623;SDS011;6377;42.836;23.998;2023-04-03T08:43:40;5.23;;;4.03;;
12623;SDS011;6377;42.836;23.998;2023-04-03T08:46:26;4.47;;;3.77;;
12623;SDS011;6377;42.836;23.998;2023-04-03T08:49:02;4.93;;;2.63;;
12623;SDS011;6377;42.836;23.998;2023-04-03T08:51:33;3.43;;;2.70;;
12623;SDS011;6377;42.836;23.998;2023-04-03T08:54:01;3.33;;;2.60;;
12623;SDS011;6377;42.836;23.998;2023-04-03T08:56:33;2.27;;;1.90;;
12623;SDS011;6377;42.836;23.998;2023-04-03T08:59:03;2.30;;;1.93;;
12623;SDS011;6377;42.836;23.998;2023-04-03T09:01:34;3.30;;;2.40;;
12623;SDS011;6377;42.836;23.998;2023-04-03T09:04:05;3.20;;;2.37;;
12623;SDS011;6377;42.836;23.998;2023-04-03T09:06:38;2.50;;;2.20;;
12623;SDS011;6377;42.836;23.998;2023-04-03T09:09:09;2.53;;;1.83;;
12623;SDS011;6377;42.836;23.998;2023-04-03T09:11:44;3.60;;;2.57;;
12623;SDS011;6377;42.836;23.998;2023-04-03T09:14:22;3.67;;;2.67;;
12623;SDS011;6377;42.836;23.998;2023-04-03T09:16:57;4.07;;;3.17;;
12623;SDS011;6377;42.836;23.998;2023-04-03T09:19:31;2.63;;;1.90;;
12623;SDS011;6377;42.836;23.998;2023-04-03T09:22:11;1.67;;;1.57;;
12623;SDS011;6377;42.836;23.998;2023-04-03T09:24:44;2.60;;;2.03;;
12623;SDS011;6377;42.836;23.998;2023-04-03T09:27:13;2.00;;;1.80;;
12623;SDS011;6377;42.836;23.998;2023-04-03T09:29:42;2.57;;;1.90;;
12623;SDS011;6377;42.836;23.998;2023-04-03T09:32:18;11.07;;;6.43;;
12623;SDS011;6377;42.836;23.998;2023-04-03T09:34:49;11.17;;;6.00;;
12623;SDS011;6377;42.836;23.998;2023-04-03T09:40:27;3.77;;;2.20;;
12623;SDS011;6377;42.836;23.998;2023-04-03T09:42:56;3.60;;;2.33;;
12623;SDS011;6377;42.836;23.998;2023-04-03T09:45:25;4.80;;;2.67;;
12623;SDS011;6377;42.836;23.998;2023-04-03T09:48:04;2.90;;;2.40;;
12623;SDS011;6377;42.836;23.998;2023-04-03T09:50:34;3.13;;;2.40;;
12623;SDS011;6377;42.836;23.998;2023-04-03T09:53:06;3.77;;;2.93;;
12623;SDS011;6377;42.836;23.998;2023-04-03T09:55:51;2.93;;;2.30;;
12623;SDS011;6377;42.836;23.998;2023-04-03T09:58:23;2.57;;;1.90;;
12623;SDS011;6377;42.836;23.998;2023-04-03T10:00:54;1.90;;;1.63;;
12623;SDS011;6377;42.836;23.998;2023-04-03T10:03:24;2.30;;;1.70;;
12623;SDS011;6377;42.836;23.998;2023-04-03T10:05:55;2.17;;;1.80;;
12623;SDS011;6377;42.836;23.998;2023-04-03T10:08:25;2.77;;;2.00;;
12623;SDS011;6377;42.836;23.998;2023-04-03T10:11:08;2.00;;;1.80;;
12623;SDS011;6377;42.836;23.998;2023-04-03T10:13:55;3.60;;;2.00;;
12623;SDS011;6377;42.836;23.998;2023-04-03T10:16:29;2.23;;;2.00;;
12623;SDS011;6377;42.836;23.998;2023-04-03T10:19:05;5.73;;;3.63;;
12623;SDS011;6377;42.836;23.998;2023-04-03T10:21:59;4.40;;;2.77;;
12623;SDS011;6377;42.836;23.998;2023-04-03T10:24:31;3.50;;;2.60;;
12623;SDS011;6377;42.836;23.998;2023-04-03T10:27:04;3.47;;;2.40;;
12623;SDS011;6377;42.836;23.998;2023-04-03T10:29:39;2.77;;;2.20;;
12623;SDS011;6377;42.836;23.998;2023-04-03T10:32:19;4.03;;;2.17;;
12623;SDS011;6377;42.836;23.998;2023-04-03T10:34:54;3.93;;;3.27;;
12623;SDS011;6377;42.836;23.998;2023-04-03T10:37:33;2.83;;;2.53;;
12623;SDS011;6377;42.836;23.998;2023-04-03T10:40:20;3.20;;;2.90;;
12623;SDS011;6377;42.836;23.998;2023-04-03T10:42:58;5.67;;;3.80;;
12623;SDS011;6377;42.836;23.998;2023-04-03T10:45:31;6.23;;;3.40;;
12623;SDS011;6377;42.836;23.998;2023-04-03T10:48:05;3.63;;;2.80;;
12623;SDS011;6377;42.836;23.998;2023-04-03T10:50:38;2.33;;;1.90;;
12623;SDS011;6377;42.836;23.998;2023-04-03T10:53:16;4.47;;;3.30;;
12623;SDS011;6377;42.836;23.998;2023-04-03T10:55:53;5.63;;;4.40;;
12623;SDS011;6377;42.836;23.998;2023-04-03T10:58:29;5.03;;;4.20;;
12623;SDS011;6377;42.836;23.998;2023-04-03T11:01:00;5.77;;;4.80;;
12623;SDS011;6377;42.836;23.998;2023-04-03T11:03:36;3.77;;;3.37;;
12623;SDS011;6377;42.836;23.998;2023-04-03T11:06:07;6.60;;;4.57;;
12623;SDS011;6377;42.836;23.998;2023-04-03T11:08:42;7.67;;;4.67;;
12623;SDS011;6377;42.836;23.998;2023-04-03T11:11:13;5.60;;;4.50;;
12623;SDS011;6377;42.836;23.998;2023-04-03T11:13:45;5.50;;;3.70;;
12623;SDS011;6377;42.836;23.998;2023-04-03T11:16:20;5.37;;;4.43;;
12623;SDS011;6377;42.836;23.998;2023-04-03T11:18:52;5.63;;;4.00;;
12623;SDS011;6377;42.836;23.998;2023-04-03T11:21:26;5.37;;;3.90;;
12623;SDS011;6377;42.836;23.998;2023-04-03T11:23:57;10.80;;;6.63;;
12623;SDS011;6377;42.836;23.998;2023-04-03T11:26:26;7.07;;;5.63;;
12623;SDS011;6377;42.836;23.998;2023-04-03T11:28:58;5.17;;;3.93;;
12623;SDS011;6377;42.836;23.998;2023-04-03T11:31:33;4.97;;;4.47;;
12623;SDS011;6377;42.836;23.998;2023-04-03T11:34:21;8.50;;;7.27;;
12623;SDS011;6377;42.836;23.998;2023-04-03T11:36:59;2.30;;;2.10;;
12623;SDS011;6377;42.836;23.998;2023-04-03T11:39:30;11.60;;;8.33;;
12623;SDS011;6377;42.836;23.998;2023-04-03T11:42:13;20.80;;;16.43;;
12623;SDS011;6377;42.836;23.998;2023-04-03T11:44:45;20.50;;;13.57;;
12623;SDS011;6377;42.836;23.998;2023-04-03T11:47:12;15.27;;;11.17;;
12623;SDS011;6377;42.836;23.998;2023-04-03T11:52:59;16.07;;;11.97;;
12623;SDS011;6377;42.836;23.998;2023-04-03T11:58:26;8.47;;;6.17;;
12623;SDS011;6377;42.836;23.998;2023-04-03T12:01:03;10.93;;;7.97;;
12623;SDS011;6377;42.836;23.998;2023-04-03T12:12:37;19.37;;;15.67;;
12623;SDS011;6377;42.836;23.998;2023-04-03T12:21:10;11.37;;;8.80;;
12623;SDS011;6377;42.836;23.998;2023-04-03T12:26:36;11.40;;;8.43;;
12623;SDS011;6377;42.836;23.998;2023-04-03T12:29:13;14.27;;;11.27;;
12623;SDS011;6377;42.836;23.998;2023-04-03T12:31:48;8.93;;;7.30;;
12623;SDS011;6377;42.836;23.998;2023-04-03T12:34:28;9.10;;;7.73;;
12623;SDS011;6377;42.836;23.998;2023-04-03T12:37:08;8.00;;;6.53;;
12623;SDS011;6377;42.836;23.998;2023-04-03T12:39:52;10.83;;;7.97;;
12623;SDS011;6377;42.836;23.998;2023-04-03T12:42:34;13.83;;;9.70;;
12623;SDS011;6377;42.836;23.998;2023-04-03T12:45:17;153.40;;;73.97;;
12623;SDS011;6377;42.836;23.998;2023-04-03T12:47:48;28.83;;;18.97;;
12623;SDS011;6377;42.836;23.998;2023-04-03T12:50:18;53.27;;;32.30;;
12623;SDS011;6377;42.836;23.998;2023-04-03T12:52:51;28.87;;;19.27;;
12623;SDS011;6377;42.836;23.998;2023-04-03T12:55:23;38.07;;;23.53;;
12623;SDS011;6377;42.836;23.998;2023-04-03T12:57:50;14.47;;;10.40;;
12623;SDS011;6377;42.836;23.998;2023-04-03T13:00:27;12.33;;;9.67;;
12623;SDS011;6377;42.836;23.998;2023-04-03T13:02:58;12.57;;;10.63;;
12623;SDS011;6377;42.836;23.998;2023-04-03T13:05:28;43.57;;;27.87;;
12623;SDS011;6377;42.836;23.998;2023-04-03T13:07:58;29.70;;;20.30;;
12623;SDS011;6377;42.836;23.998;2023-04-03T13:10:28;97.57;;;59.60;;
12623;SDS011;6377;42.836;23.998;2023-04-03T13:12:57;57.00;;;38.67;;
12623;SDS011;6377;42.836;23.998;2023-04-03T13:15:27;35.70;;;25.73;;
12623;SDS011;6377;42.836;23.998;2023-04-03T13:17:56;27.30;;;20.20;;
12623;SDS011;6377;42.836;23.998;2023-04-03T13:20:25;28.93;;;18.93;;
12623;SDS011;6377;42.836;23.998;2023-04-03T13:22:56;23.20;;;15.03;;
12623;SDS011;6377;42.836;23.998;2023-04-03T13:25:28;17.83;;;9.13;;
12623;SDS011;6377;42.836;23.998;2023-04-03T13:27:58;43.47;;;18.43;;
12623;SDS011;6377;42.836;23.998;2023-04-03T13:30:29;63.40;;;25.63;;
12623;SDS011;6377;42.836;23.998;2023-04-03T13:32:59;21.87;;;12.97;;
12623;SDS011;6377;42.836;23.998;2023-04-03T13:35:32;13.80;;;8.57;;
12623;SDS011;6377;42.836;23.998;2023-04-03T13:38:04;8.93;;;5.77;;
12623;SDS011;6377;42.836;23.998;2023-04-03T13:40:48;20.70;;;17.57;;
12623;SDS011;6377;42.836;23.998;2023-04-03T13:43:18;46.83;;;35.60;;
12623;SDS011;6377;42.836;23.998;2023-04-03T13:45:56;20.43;;;16.57;;
12623;SDS011;6377;42.836;23.998;2023-04-03T13:48:34;24.27;;;17.67;;
12623;SDS011;6377;42.836;23.998;2023-04-03T13:51:04;25.37;;;19.27;;
12623;SDS011;6377;42.836;23.998;2023-04-03T13:53:33;38.63;;;27.90;;
12623;SDS011;6377;42.836;23.998;2023-04-03T13:56:08;34.50;;;25.00;;
12623;SDS011;6377;42.836;23.998;2023-04-03T13:58:52;57.67;;;39.00;;
12623;SDS011;6377;42.836;23.998;2023-04-03T14:01:25;40.80;;;28.70;;
12623;SDS011;6377;42.836;23.998;2023-04-03T14:04:00;26.73;;;19.40;;
12623;SDS011;6377;42.836;23.998;2023-04-03T14:06:28;28.83;;;21.07;;
12623;SDS011;6377;42.836;23.998;2023-04-03T14:08:55;22.63;;;15.43;;
12623;SDS011;6377;42.836;23.998;2023-04-03T14:11:24;26.03;;;20.30;;
12623;SDS011;6377;42.836;23.998;2023-04-03T14:13:54;15.97;;;11.10;;
12623;SDS011;6377;42.836;23.998;2023-04-03T14:16:27;21.67;;;16.63;;
12623;SDS011;6377;42.836;23.998;2023-04-03T14:18:56;26.20;;;19.63;;
12623;SDS011;6377;42.836;23.998;2023-04-03T14:21:24;18.10;;;13.70;;
12623;SDS011;6377;42.836;23.998;2023-04-03T14:23:51;27.57;;;20.57;;
12623;SDS011;6377;42.836;23.998;2023-04-03T14:26:19;29.40;;;21.93;;
12623;SDS011;6377;42.836;23.998;2023-04-03T14:28:49;33.87;;;26.20;;
12623;SDS011;6377;42.836;23.998;2023-04-03T14:31:17;34.97;;;26.03;;
12623;SDS011;6377;42.836;23.998;2023-04-03T14:33:47;31.73;;;23.50;;
12623;SDS011;6377;42.836;23.998;2023-04-03T14:36:16;38.23;;;24.10;;
12623;SDS011;6377;42.836;23.998;2023-04-03T14:38:44;38.70;;;25.33;;
12623;SDS011;6377;42.836;23.998;2023-04-03T14:41:12;23.83;;;17.80;;
12623;SDS011;6377;42.836;23.998;2023-04-03T14:43:40;24.87;;;17.60;;
12623;SDS011;6377;42.836;23.998;2023-04-03T14:46:10;22.83;;;16.23;;
12623;SDS011;6377;42.836;23.998;2023-04-03T14:48:40;23.27;;;17.47;;
12623;SDS011;6377;42.836;23.998;2023-04-03T14:51:10;38.63;;;29.57;;
12623;SDS011;6377;42.836;23.998;2023-04-03T14:53:38;36.83;;;25.83;;
12623;SDS011;6377;42.836;23.998;2023-04-03T14:56:10;46.43;;;36.47;;
12623;SDS011;6377;42.836;23.998;2023-04-03T14:58:38;34.17;;;25.47;;
12623;SDS011;6377;42.836;23.998;2023-04-03T15:01:05;36.23;;;27.20;;
12623;SDS011;6377;42.836;23.998;2023-04-03T15:03:32;24.60;;;18.27;;
12623;SDS011;6377;42.836;23.998;2023-04-03T15:06:00;47.33;;;34.13;;
12623;SDS011;6377;42.836;23.998;2023-04-03T15:08:28;81.83;;;49.27;;
12623;SDS011;6377;42.836;23.998;2023-04-03T15:10:56;66.67;;;42.13;;
12623;SDS011;6377;42.836;23.998;2023-04-03T15:13:24;128.57;;;71.57;;
12623;SDS011;6377;42.836;23.998;2023-04-03T15:15:51;29.73;;;21.20;;
12623;SDS011;6377;42.836;23.998;2023-04-03T15:18:19;162.73;;;90.13;;
12623;SDS011;6377;42.836;23.998;2023-04-03T15:20:49;66.70;;;41.10;;
12623;SDS011;6377;42.836;23.998;2023-04-03T15:23:16;118.37;;;81.70;;
12623;SDS011;6377;42.836;23.998;2023-04-03T15:25:45;150.80;;;69.53;;
12623;SDS011;6377;42.836;23.998;2023-04-03T15:28:17;69.07;;;42.83;;
12623;SDS011;6377;42.836;23.998;2023-04-03T15:30:48;74.07;;;44.07;;
12623;SDS011;6377;42.836;23.998;2023-04-03T15:33:16;212.23;;;127.33;;
12623;SDS011;6377;42.836;23.998;2023-04-03T15:35:43;63.23;;;44.87;;
12623;SDS011;6377;42.836;23.998;2023-04-03T15:38:10;27.53;;;20.27;;
12623;SDS011;6377;42.836;23.998;2023-04-03T15:40:38;74.83;;;50.07;;
12623;SDS011;6377;42.836;23.998;2023-04-03T15:43:09;75.53;;;51.60;;
12623;SDS011;6377;42.836;23.998;2023-04-03T15:45:36;57.30;;;47.70;;
12623;SDS011;6377;42.836;23.998;2023-04-03T15:48:04;25.13;;;21.60;;
12623;SDS011;6377;42.836;23.998;2023-04-03T15:50:32;20.00;;;16.60;;
12623;SDS011;6377;42.836;23.998;2023-04-03T15:53:00;16.77;;;13.60;;
12623;SDS011;6377;42.836;23.998;2023-04-03T15:55:28;17.73;;;13.67;;
12623;SDS011;6377;42.836;23.998;2023-04-03T15:57:58;24.33;;;19.77;;
12623;SDS011;6377;42.836;23.998;2023-04-03T16:00:27;21.67;;;15.23;;
12623;SDS011;6377;42.836;23.998;2023-04-03T16:02:55;15.77;;;11.20;;
12623;SDS011;6377;42.836;23.998;2023-04-03T16:05:26;15.90;;;11.87;;
12623;SDS011;6377;42.836;23.998;2023-04-03T16:07:53;25.63;;;20.07;;
12623;SDS011;6377;42.836;23.998;2023-04-03T16:10:21;19.83;;;14.97;;
12623;SDS011;6377;42.836;23.998;2023-04-03T16:12:48;23.33;;;18.00;;
12623;SDS011;6377;42.836;23.998;2023-04-03T16:15:15;26.77;;;21.40;;
12623;SDS011;6377;42.836;23.998;2023-04-03T16:17:44;19.37;;;16.43;;
12623;SDS011;6377;42.836;23.998;2023-04-03T16:20:13;27.07;;;21.63;;
12623;SDS011;6377;42.836;23.998;2023-04-03T16:22:41;46.23;;;34.57;;
12623;SDS011;6377;42.836;23.998;2023-04-03T16:25:09;23.40;;;18.20;;
12623;SDS011;6377;42.836;23.998;2023-04-03T16:27:37;37.07;;;27.33;;
12623;SDS011;6377;42.836;23.998;2023-04-03T16:30:05;45.67;;;30.70;;
12623;SDS011;6377;42.836;23.998;2023-04-03T16:32:33;49.40;;;31.00;;
12623;SDS011;6377;42.836;23.998;2023-04-03T16:35:03;42.30;;;29.10;;
12623;SDS011;6377;42.836;23.998;2023-04-03T16:37:31;33.43;;;25.17;;
12623;SDS011;6377;42.836;23.998;2023-04-03T16:39:58;75.43;;;51.63;;
12623;SDS011;6377;42.836;23.998;2023-04-03T16:42:25;76.60;;;55.73;;
12623;SDS011;6377;42.836;23.998;2023-04-03T16:44:52;53.73;;;40.00;;
12623;SDS011;6377;42.836;23.998;2023-04-03T16:47:19;30.20;;;22.70;;
12623;SDS011;6377;42.836;23.998;2023-04-03T16:49:47;26.17;;;16.20;;
12623;SDS011;6377;42.836;23.998;2023-04-03T16:52:15;32.63;;;21.93;;
12623;SDS011;6377;42.836;23.998;2023-04-03T16:54:44;41.47;;;29.17;;
12623;SDS011;6377;42.836;23.998;2023-04-03T16:57:11;63.73;;;37.60;;
12623;SDS011;6377;42.836;23.998;2023-04-03T16:59:39;56.03;;;35.13;;
12623;SDS011;6377;42.836;23.998;2023-04-03T17:02:06;49.27;;;34.70;;
12623;SDS011;6377;42.836;23.998;2023-04-03T17:04:33;35.67;;;25.57;;
12623;SDS011;6377;42.836;23.998;2023-04-03T17:07:01;33.77;;;23.77;;
12623;SDS011;6377;42.836;23.998;2023-04-03T17:09:32;24.43;;;18.07;;
12623;SDS011;6377;42.836;23.998;2023-04-03T17:12:00;27.97;;;20.00;;
12623;SDS011;6377;42.836;23.998;2023-04-03T17:14:27;39.77;;;28.33;;
12623;SDS011;6377;42.836;23.998;2023-04-03T17:16:55;43.30;;;30.87;;
12623;SDS011;6377;42.836;23.998;2023-04-03T17:19:22;49.47;;;36.53;;
12623;SDS011;6377;42.836;23.998;2023-04-03T17:21:49;43.17;;;31.23;;
12623;SDS011;6377;42.836;23.998;2023-04-03T17:24:18;34.50;;;24.13;;
12623;SDS011;6377;42.836;23.998;2023-04-03T17:26:46;30.40;;;21.27;;
12623;SDS011;6377;42.836;23.998;2023-04-03T17:29:14;27.30;;;19.87;;
12623;SDS011;6377;42.836;23.998;2023-04-03T17:31:41;20.33;;;14.83;;
12623;SDS011;6377;42.836;23.998;2023-04-03T17:34:09;24.93;;;15.20;;
12623;SDS011;6377;42.836;23.998;2023-04-03T17:36:37;17.77;;;12.50;;
12623;SDS011;6377;42.836;23.998;2023-04-03T17:39:05;14.90;;;11.73;;
12623;SDS011;6377;42.836;23.998;2023-04-03T17:41:33;20.20;;;14.30;;
12623;SDS011;6377;42.836;23.998;2023-04-03T17:44:03;36.00;;;23.17;;
12623;SDS011;6377;42.836;23.998;2023-04-03T17:46:31;36.83;;;24.43;;
12623;SDS011;6377;42.836;23.998;2023-04-03T17:48:58;45.17;;;26.77;;
12623;SDS011;6377;42.836;23.998;2023-04-03T17:51:26;95.17;;;57.27;;
12623;SDS011;6377;42.836;23.998;2023-04-03T17:53:58;199.03;;;108.77;;
12623;SDS011;6377;42.836;23.998;2023-04-03T17:56:25;47.90;;;31.00;;
12623;SDS011;6377;42.836;23.998;2023-04-03T17:58:53;51.40;;;36.13;;
12623;SDS011;6377;42.836;23.998;2023-04-03T18:01:24;14.37;;;11.07;;
12623;SDS011;6377;42.836;23.998;2023-04-03T18:03:53;15.63;;;11.20;;
12623;SDS011;6377;42.836;23.998;2023-04-03T18:06:22;18.90;;;13.10;;
12623;SDS011;6377;42.836;23.998;2023-04-03T18:08:52;18.70;;;13.33;;
12623;SDS011;6377;42.836;23.998;2023-04-03T18:11:22;24.57;;;16.97;;
12623;SDS011;6377;42.836;23.998;2023-04-03T18:13:53;19.73;;;12.13;;
12623;SDS011;6377;42.836;23.998;2023-04-03T18:16:24;20.73;;;13.97;;
12623;SDS011;6377;42.836;23.998;2023-04-03T18:18:51;15.50;;;9.87;;
12623;SDS011;6377;42.836;23.998;2023-04-03T18:21:18;11.80;;;8.17;;
12623;SDS011;6377;42.836;23.998;2023-04-03T18:23:48;35.80;;;24.03;;
12623;SDS011;6377;42.836;23.998;2023-04-03T18:26:18;55.03;;;37.90;;
12623;SDS011;6377;42.836;23.998;2023-04-03T18:28:47;27.47;;;19.77;;
12623;SDS011;6377;42.836;23.998;2023-04-03T18:31:19;28.77;;;19.60;;
12623;SDS011;6377;42.836;23.998;2023-04-03T18:33:48;16.20;;;10.13;;
12623;SDS011;6377;42.836;23.998;2023-04-03T18:36:18;21.17;;;15.33;;
12623;SDS011;6377;42.836;23.998;2023-04-03T18:38:45;25.00;;;15.10;;
12623;SDS011;6377;42.836;23.998;2023-04-03T18:41:12;16.37;;;10.87;;
12623;SDS011;6377;42.836;23.998;2023-04-03T18:43:40;23.93;;;14.77;;
12623;SDS011;6377;42.836;23.998;2023-04-03T18:46:07;17.03;;;11.13;;
12623;SDS011;6377;42.836;23.998;2023-04-03T18:48:36;28.03;;;18.10;;
12623;SDS011;6377;42.836;23.998;2023-04-03T18:51:07;21.67;;;14.37;;
12623;SDS011;6377;42.836;23.998;2023-04-03T18:53:35;25.90;;;17.97;;
12623;SDS011;6377;42.836;23.998;2023-04-03T18:56:03;29.43;;;21.20;;
12623;SDS011;6377;42.836;23.998;2023-04-03T18:58:30;24.00;;;15.83;;
12623;SDS011;6377;42.836;23.998;2023-04-03T19:00:59;21.37;;;13.30;;
12623;SDS011;6377;42.836;23.998;2023-04-03T19:03:26;26.50;;;15.60;;
12623;SDS011;6377;42.836;23.998;2023-04-03T19:05:55;106.00;;;59.00;;
12623;SDS011;6377;42.836;23.998;2023-04-03T19:08:24;55.37;;;33.50;;
12623;SDS011;6377;42.836;23.998;2023-04-03T19:10:51;24.53;;;16.83;;
12623;SDS011;6377;42.836;23.998;2023-04-03T19:13:18;17.87;;;12.87;;
12623;SDS011;6377;42.836;23.998;2023-04-03T19:15:46;20.67;;;14.07;;
12623;SDS011;6377;42.836;23.998;2023-04-03T19:18:17;15.60;;;9.40;;
12623;SDS011;6377;42.836;23.998;2023-04-03T19:20:46;20.37;;;13.53;;
12623;SDS011;6377;42.836;23.998;2023-04-03T19:23:13;27.40;;;19.17;;
12623;SDS011;6377;42.836;23.998;2023-04-03T19:25:41;28.27;;;19.00;;
12623;SDS011;6377;42.836;23.998;2023-04-03T19:28:08;37.80;;;23.20;;
12623;SDS011;6377;42.836;23.998;2023-04-03T19:30:36;14.10;;;9.73;;
12623;SDS011;6377;42.836;23.998;2023-04-03T19:33:03;25.13;;;16.40;;
12623;SDS011;6377;42.836;23.998;2023-04-03T19:35:30;19.30;;;13.40;;
12623;SDS011;6377;42.836;23.998;2023-04-03T19:37:58;18.10;;;13.20;;
12623;SDS011;6377;42.836;23.998;2023-04-03T19:40:25;16.63;;;11.77;;
12623;SDS011;6377;42.836;23.998;2023-04-03T19:42:57;16.40;;;11.40;;
12623;SDS011;6377;42.836;23.998;2023-04-03T19:45:25;22.87;;;15.57;;
12623;SDS011;6377;42.836;23.998;2023-04-03T19:47:52;20.83;;;14.13;;
12623;SDS011;6377;42.836;23.998;2023-04-03T19:50:19;25.33;;;14.33;;
12623;SDS011;6377;42.836;23.998;2023-04-03T19:52:46;14.50;;;10.50;;
12623;SDS011;6377;42.836;23.998;2023-04-03T19:55:14;14.03;;;9.23;;
12623;SDS011;6377;42.836;23.998;2023-04-03T19:57:41;13.63;;;9.33;;
12623;SDS011;6377;42.836;23.998;2023-04-03T20:00:10;15.60;;;11.07;;
12623;SDS011;6377;42.836;23.998;2023-04-03T20:02:39;20.33;;;12.70;;
12623;SDS011;6377;42.836;23.998;2023-04-03T20:05:07;15.03;;;9.90;;
12623;SDS011;6377;42.836;23.998;2023-04-03T20:07:35;20.10;;;13.10;;
12623;SDS011;6377;42.836;23.998;2023-04-03T20:10:02;32.60;;;19.10;;
12623;SDS011;6377;42.836;23.998;2023-04-03T20:12:30;16.60;;;11.03;;
12623;SDS011;6377;42.836;23.998;2023-04-03T20:14:57;18.47;;;12.53;;
12623;SDS011;6377;42.836;23.998;2023-04-03T20:17:32;14.60;;;10.03;;
12623;SDS011;6377;42.836;23.998;2023-04-03T20:20:00;16.37;;;10.43;;
12623;SDS011;6377;42.836;23.998;2023-04-03T20:22:28;16.87;;;11.83;;
12623;SDS011;6377;42.836;23.998;2023-04-03T20:24:55;11.03;;;8.50;;
12623;SDS011;6377;42.836;23.998;2023-04-03T20:27:22;14.20;;;9.60;;
12623;SDS011;6377;42.836;23.998;2023-04-03T20:29:50;9.83;;;6.33;;
12623;SDS011;6377;42.836;23.998;2023-04-03T20:32:17;11.13;;;5.73;;
12623;SDS011;6377;42.836;23.998;2023-04-03T20:34:47;11.53;;;6.93;;
12623;SDS011;6377;42.836;23.998;2023-04-03T20:37:15;8.20;;;6.63;;
12623;SDS011;6377;42.836;23.998;2023-04-03T20:39:45;14.37;;;10.20;;
12623;SDS011;6377;42.836;23.998;2023-04-03T20:42:12;14.70;;;10.37;;
12623;SDS011;6377;42.836;23.998;2023-04-03T20:44:40;19.97;;;14.43;;
